ADDS METAR Data INFO
IDs: Format: Raw Decoded Include TAF

Data at: 0318 UTC 20 Jul 2018

KTGI 200255Z AUTO 12009G14KT 10SM CLR 25/18 A3010 RMK AO1
KTGI 200235Z AUTO 13012G16KT 10SM CLR 25/18 A3010 RMK AO1
KTGI 200215Z AUTO 12010G15KT 10SM CLR 25/17 A3010 RMK AO1
KTGI 200155Z AUTO 12010G14KT 10SM CLR 25/18 A3010 RMK AO1
KTGI 200135Z AUTO 11009G14KT 10SM CLR 25/18 A3009 RMK AO1
KTGI 200115Z AUTO 11009KT 10SM CLR 25/18 A3008 RMK AO1
KTGI 200057Z AUTO 12009G15KT 10SM CLR 26/17 A3008 RMK AO1
KTGI 200035Z AUTO 12009G16KT 10SM CLR 26/17 A3007 RMK AO1
KTGI 200015Z AUTO 11009G14KT 10SM CLR 26/17 A3007 RMK AO1
KTGI 192355Z AUTO 12008KT 10SM CLR 27/17 A3007 RMK AO1
KTGI 192336Z AUTO 12007KT 10SM CLR 27/17 A3006 RMK AO1
KTGI 192315Z AUTO 12008KT 10SM CLR 28/16 A3006 RMK AO1
KTGI 192255Z AUTO 12006KT 10SM CLR 28/16 A3006 RMK AO1
KTGI 192235Z AUTO 13007KT 10SM CLR 28/16 A3006 RMK AO1
KTGI 192215Z AUTO 12007KT 10SM CLR 29/16 A3005 RMK AO1
KTGI 192155Z AUTO 11007KT 10SM CLR 29/16 A3005 RMK AO1
KTGI 192135Z AUTO 14004KT 10SM CLR 29/16 A3006 RMK AO1
KTGI 192116Z AUTO 15004KT 10SM CLR 29/16 A3006 RMK AO1
KTGI 192056Z AUTO 16005KT 10SM CLR 29/17 A3007 RMK AO1
KTGI 192035Z AUTO 20003KT 10SM CLR 29/17 A3007 RMK AO1
KTGI 192015Z AUTO 15004KT 10SM CLR 29/17 A3007 RMK AO1
KTGI 191955Z AUTO 00000KT 10SM CLR 29/17 A3007 RMK AO1
KTGI 191935Z AUTO 00000KT 10SM CLR 29/17 A3007 RMK AO1
KTGI 191916Z AUTO 14003KT 10SM CLR 29/17 A3007 RMK AO1
KTGI 191856Z AUTO 15005KT 10SM CLR 29/17 A3008 RMK AO1
KTGI 191835Z AUTO 00000KT 10SM CLR 29/16 A3008 RMK AO1
KTGI 191815Z AUTO 15003KT 10SM CLR 29/17 A3009 RMK AO1
KTGI 191755Z AUTO 10007KT 10SM CLR 29/17 A3009 RMK AO1
KTGI 191737Z AUTO 10005KT 10SM CLR 29/17 A3009 RMK AO1
KTGI 191715Z AUTO 09005KT 10SM CLR 29/17 A3008 RMK AO1
KTGI 191655Z AUTO 08005KT 10SM CLR 29/18 A3009 RMK AO1
KTGI 191636Z AUTO 08006KT 10SM CLR 29/18 A3009 RMK AO1
KTGI 191615Z AUTO 08005KT 10SM CLR 29/19 A3009 RMK AO1
KTGI 191555Z AUTO 08006KT 10SM CLR 29/19 A3009 RMK AO1
KTGI 191535Z AUTO 07006KT 10SM CLR 29/19 A3009 RMK AO1
KTGI 191516Z AUTO 07009KT 10SM CLR 28/19 A3009 RMK AO1
KTGI 191456Z AUTO 07006KT 10SM CLR 28/19 A3009 RMK AO1
KTGI 191436Z AUTO 07007KT 10SM CLR 28/19 A3009 RMK AO1
KTGI 191415Z AUTO 07008G14KT 10SM CLR 27/19 A3008 RMK AO1
KTGI 191355Z AUTO 06009KT 10SM CLR 27/19 A3007 RMK AO1
KTGI 191335Z AUTO 06010G14KT 10SM CLR 27/19 A3007 RMK AO1
KTGI 191315Z AUTO 05011KT 10SM CLR 26/19 A3007 RMK AO1
KTGI 191255Z AUTO 05010KT 10SM CLR 26/21 A3007 RMK AO1
KTGI 191235Z AUTO 05010G14KT 10SM CLR 26/21 A3006 RMK AO1
KTGI 191215Z AUTO 04009G17KT 10SM CLR 25/21 A3005 RMK AO1
KTGI 191155Z AUTO 04009KT 10SM CLR 24/22 A3004 RMK AO1
KTGI 191135Z AUTO 04009KT 10SM CLR 24/22 A3004 RMK AO1
KTGI 191116Z AUTO 03011G17KT 10SM CLR 25/22 A3003 RMK AO1
KTGI 191056Z AUTO 02007KT 10SM SCT080 25/22 A3003 RMK AO1
KTGI 191035Z AUTO 02007KT 10SM BKN080 26/24 A3002 RMK AO1
KTGI 191015Z AUTO 02008KT 10SM SCT080 26/22 A3001 RMK AO1
KTGI 190955Z AUTO 02009KT 10SM CLR 26/21 A3001 RMK AO1
KTGI 190935Z AUTO 35007KT 10SM CLR 25/21 A3000 RMK AO1
KTGI 190915Z AUTO 35006KT 10SM SCT090 25/22 A3000 RMK AO1
KTGI 190856Z AUTO 36003KT 10SM SCT090 24/22 A2999 RMK AO1
KTGI 190835Z AUTO 00000KT 10SM CLR 23/22 A2999 RMK AO1
KTGI 190815Z AUTO 00000KT 10SM CLR 24/22 A2999 RMK AO1
KTGI 190755Z AUTO 00000KT 10SM CLR 24/22 A2999 RMK AO1
KTGI 190735Z AUTO 20003KT 10SM SCT090 24/22 A2999 RMK AO1
KTGI 190715Z AUTO 17003KT 10SM BKN090 24/22 A2999 RMK AO1
KTGI 190655Z AUTO 19005KT 10SM SCT090 24/22 A2999 RMK AO1
KTGI 190636Z AUTO 19007KT 10SM BKN090 24/22 A2999 RMK AO1
KTGI 190616Z AUTO 17003KT 10SM BKN090 24/22 A2999 RMK AO1
KTGI 190555Z AUTO 18005KT 10SM OVC080 24/22 A2999 RMK AO1
KTGI 190515Z AUTO 15004KT 10SM SCT080 25/22 A2999 RMK AO1
KTGI 190455Z AUTO 12010G14KT 10SM SCT060 SCT080 25/23 A2998 RMK AO1
KTGI 190435Z AUTO 12011G16KT 10SM BKN060 BKN080 25/21 A2998 RMK AO1
KTGI 190415Z AUTO 00000KT 10SM BKN070 BKN080 25/20 A2997 RMK AO1
KTGI 190335Z AUTO 31003KT 10SM CLR 27/19 A2997 RMK AO1
KTGI 190315Z AUTO 33004KT 10SM SCT070 27/19 A2997 RMK AO1
KTGI 190255Z AUTO 32005KT 10SM SCT070 27/19 A2997 RMK AO1
KTGI 190236Z AUTO 32006KT 10SM CLR 27/18 A2996 RMK AO1
KTGI 190215Z AUTO 31004KT 10SM CLR 27/18 A2996 RMK AO1
KTGI 190155Z AUTO 30006KT 10SM CLR 27/18 A2996 RMK AO1
KTGI 190135Z AUTO 30005KT 10SM CLR 27/17 A2995 RMK AO1
KTGI 190115Z AUTO 30005KT 10SM CLR 27/17 A2994 RMK AO1
KTGI 190055Z AUTO 31005KT 10SM CLR 27/17 A2994 RMK AO1
KTGI 190035Z AUTO 30004KT 10SM CLR 27/17 A2994 RMK AO1
KTGI 190015Z AUTO 29005KT 10SM CLR 27/17 A2994 RMK AO1
KTGI 182356Z AUTO 29005KT 10SM CLR 27/17 A2993 RMK AO1
KTGI 182335Z AUTO 30007KT 10SM CLR 28/17 A2993 RMK AO1
KTGI 182315Z AUTO 31008KT 10SM CLR 28/17 A2993 RMK AO1
KTGI 182255Z AUTO 30009KT 10SM CLR 28/18 A2993 RMK AO1
KTGI 182235Z AUTO 30009KT 10SM CLR 28/18 A2992 RMK AO1
KTGI 182215Z AUTO 31011KT 10SM CLR 29/18 A2992 RMK AO1
KTGI 182155Z AUTO 32011KT 10SM CLR 29/18 A2992 RMK AO1
KTGI 182135Z AUTO 33011KT 10SM CLR 29/17 A2992 RMK AO1
KTGI 182115Z AUTO 33010G16KT 10SM CLR 29/18 A2992 RMK AO1
KTGI 182055Z AUTO 34014G18KT 10SM CLR 29/15 A2992 RMK AO1
KTGI 182035Z AUTO 33011G18KT 10SM CLR 29/15 A2992 RMK AO1
KTGI 182015Z AUTO 34011G18KT 10SM CLR 29/16 A2993 RMK AO1
KTGI 181955Z AUTO 33010G15KT 10SM CLR 29/16 A2993 RMK AO1
KTGI 181935Z AUTO 34012G18KT 10SM CLR 29/17 A2993 RMK AO1
KTGI 181915Z AUTO 31009KT 10SM CLR 28/19 A2993 RMK AO1
KTGI 181855Z AUTO 31014KT 10SM CLR 28/20 A2994 RMK AO1
KTGI 181835Z AUTO 32011KT 10SM CLR 28/21 A2993 RMK AO1
KTGI 181816Z AUTO 32011KT 10SM CLR 28/21 A2993 RMK AO1
KTGI 181736Z AUTO 32011KT 10SM CLR 28/21 A2993 RMK AO1
KTGI 181715Z AUTO 31011KT 10SM CLR 28/21 A2994 RMK AO1
KTGI 181655Z AUTO 32010KT 10SM CLR 28/20 A2994 RMK AO1
KTGI 181637Z AUTO 31009G14KT 10SM CLR 28/20 A2994 RMK AO1
KTGI 181616Z AUTO 34009G16KT 10SM CLR 28/20 A2994 RMK AO1
KTGI 181555Z AUTO 34008G16KT 10SM CLR 27/20 A2994 RMK AO1
KTGI 181536Z AUTO 36010KT 10SM CLR 27/19 A2994 RMK AO1